createdAt,value
2018-05-19T00:02:13.216Z,99.90
2018-05-19T00:04:41.347Z,99.90
2018-05-19T00:07:09.449Z,99.90
2018-05-19T00:09:37.421Z,99.90
2018-05-19T00:12:05.691Z,99.90
2018-05-19T00:14:34.982Z,99.90
2018-05-19T00:17:03.335Z,99.90
2018-05-19T00:19:31.296Z,99.90
2018-05-19T00:21:59.208Z,99.90
2018-05-19T00:24:27.406Z,99.90
2018-05-19T00:26:55.558Z,99.90
2018-05-19T00:29:23.477Z,99.90
2018-05-19T00:31:51.801Z,99.90
2018-05-19T00:34:19.827Z,99.90
2018-05-19T00:36:48.046Z,99.90
2018-05-19T00:39:16.524Z,99.90
2018-05-19T00:41:44.751Z,99.90
2018-05-19T00:44:12.780Z,99.90
2018-05-19T00:46:40.735Z,99.90
2018-05-19T00:49:09.366Z,99.90
2018-05-19T00:51:38.012Z,99.90
2018-05-19T00:54:06.490Z,99.90
2018-05-19T00:56:35.429Z,99.90
2018-05-19T00:59:04.170Z,99.90
2018-05-19T01:01:32.576Z,99.90
2018-05-19T01:04:01.434Z,99.90
2018-05-19T01:06:29.416Z,99.90
2018-05-19T01:08:57.483Z,99.90
2018-05-19T01:11:25.433Z,99.90
2018-05-19T01:13:53.623Z,99.90
2018-05-19T01:16:22.291Z,99.90
2018-05-19T01:18:50.490Z,99.90
2018-05-19T01:21:18.251Z,99.90
2018-05-19T01:23:46.563Z,99.90
2018-05-19T01:26:14.990Z,99.90
2018-05-19T01:28:43.221Z,99.90
2018-05-19T01:31:11.144Z,99.90
2018-05-19T01:33:39.324Z,99.90
2018-05-19T01:36:07.657Z,99.90
2018-05-19T01:38:35.564Z,99.90
2018-05-19T01:41:03.726Z,99.90
2018-05-19T01:43:31.807Z,99.90
2018-05-19T01:46:00.072Z,99.90
2018-05-19T01:48:27.940Z,99.90
2018-05-19T01:50:56.115Z,99.90
2018-05-19T01:53:24.393Z,99.90
2018-05-19T01:55:53.736Z,99.90
2018-05-19T01:58:22.176Z,99.90
2018-05-19T02:00:49.957Z,99.90
2018-05-19T02:03:17.891Z,99.90
2018-05-19T02:05:46.288Z,99.90
2018-05-19T02:08:14.227Z,99.90
2018-05-19T02:10:42.206Z,99.90
2018-05-19T02:13:10.196Z,99.90
2018-05-19T02:15:38.186Z,99.90
2018-05-19T02:18:07.098Z,99.90
2018-05-19T02:20:35.090Z,99.90
2018-05-19T02:23:04.112Z,99.90
2018-05-19T02:25:32.387Z,99.90
2018-05-19T02:28:00.647Z,99.90
2018-05-19T02:30:28.536Z,99.90
2018-05-19T02:32:56.425Z,99.90
2018-05-19T02:35:26.160Z,99.90
2018-05-19T02:37:54.171Z,99.90
2018-05-19T02:40:22.328Z,99.90
2018-05-19T02:42:50.528Z,99.90
2018-05-19T02:45:18.381Z,99.90
2018-05-19T02:47:46.558Z,99.90
2018-05-19T02:50:14.847Z,99.90
2018-05-19T02:52:43.525Z,99.90
2018-05-19T02:55:11.593Z,99.90
2018-05-19T02:57:39.372Z,99.90
2018-05-19T03:00:07.529Z,99.90
2018-05-19T03:02:35.507Z,99.90
2018-05-19T03:05:03.990Z,99.90
2018-05-19T03:07:32.952Z,99.90
2018-05-19T03:10:01.367Z,99.90
2018-05-19T03:12:29.128Z,99.90
2018-05-19T03:14:57.387Z,99.90
2018-05-19T03:17:25.447Z,99.90
2018-05-19T03:19:53.628Z,99.90
2018-05-19T03:22:21.498Z,99.90
2018-05-19T03:24:49.674Z,99.90
2018-05-19T03:27:17.847Z,99.90
2018-05-19T03:29:45.713Z,99.90
2018-05-19T03:32:13.590Z,99.90
2018-05-19T03:34:41.538Z,99.90
2018-05-19T03:37:09.836Z,99.90
2018-05-19T03:39:37.779Z,99.90
2018-05-19T03:42:06.578Z,99.90
2018-05-19T03:44:34.555Z,99.90
2018-05-19T03:47:02.687Z,99.90
2018-05-19T03:49:32.520Z,99.90
2018-05-19T03:52:00.926Z,99.90
2018-05-19T03:54:28.813Z,99.90
2018-05-19T03:57:09.641Z,99.90
2018-05-19T03:59:50.177Z,99.90
2018-05-19T04:02:29.948Z,99.90
2018-05-19T04:04:58.229Z,99.90
2018-05-19T04:07:26.402Z,99.90
2018-05-19T04:09:54.272Z,99.90
2018-05-19T04:12:23.311Z,99.90
2018-05-19T04:14:51.280Z,99.90
2018-05-19T04:17:19.200Z,99.90
2018-05-19T04:19:47.177Z,99.90
2018-05-19T04:22:15.337Z,99.90
2018-05-19T04:24:43.314Z,99.90
2018-05-19T04:27:12.909Z,99.90
2018-05-19T04:29:40.851Z,99.90
2018-05-19T04:32:09.073Z,99.90
2018-05-19T04:34:37.178Z,99.90
2018-05-19T04:37:05.508Z,99.90
2018-05-19T04:39:33.376Z,99.90
2018-05-19T04:42:01.273Z,99.90
2018-05-19T04:44:29.836Z,99.90
2018-05-19T04:46:58.101Z,99.90
2018-05-19T04:49:26.585Z,99.90
2018-05-19T04:51:54.433Z,99.90
2018-05-19T04:54:22.635Z,99.90
2018-05-19T04:56:51.006Z,99.90
2018-05-19T04:59:19.326Z,99.90
2018-05-19T05:01:47.750Z,99.90
2018-05-19T05:04:16.110Z,99.90
2018-05-19T05:06:43.982Z,99.90
2018-05-19T05:09:11.966Z,99.90
2018-05-19T05:11:40.531Z,99.90
2018-05-19T05:14:08.415Z,99.90
2018-05-19T05:16:36.698Z,99.90
2018-05-19T05:19:05.373Z,99.90
2018-05-19T05:21:33.811Z,99.90
2018-05-19T05:24:02.304Z,99.90
2018-05-19T05:26:30.546Z,99.90
2018-05-19T05:28:59.184Z,99.90
2018-05-19T05:31:27.059Z,99.90
2018-05-19T05:33:55.034Z,99.90
2018-05-19T05:36:23.103Z,99.90
2018-05-19T05:38:51.411Z,99.90
2018-05-19T05:41:20.065Z,99.90
2018-05-19T05:43:48.757Z,99.90
2018-05-19T05:46:16.939Z,99.90
2018-05-19T05:48:46.000Z,99.90
2018-05-19T05:51:14.177Z,99.90
2018-05-19T05:53:42.769Z,99.90
2018-05-19T05:56:10.754Z,99.90
2018-05-19T05:58:39.844Z,99.90
2018-05-19T06:01:09.218Z,99.90
2018-05-19T06:03:37.704Z,99.90
2018-05-19T06:06:06.840Z,99.90
2018-05-19T06:08:35.488Z,99.90
2018-05-19T06:11:03.393Z,99.90
2018-05-19T06:13:32.779Z,99.90
2018-05-19T06:16:01.098Z,99.90
2018-05-19T06:18:29.722Z,99.90
2018-05-19T06:20:58.550Z,99.90
2018-05-19T06:23:27.899Z,99.90
2018-05-19T06:25:55.984Z,99.90
2018-05-19T06:28:24.307Z,99.90
2018-05-19T06:30:52.572Z,99.90
2018-05-19T06:33:21.424Z,99.90
2018-05-19T06:35:49.753Z,99.90
2018-05-19T06:38:18.196Z,99.90
2018-05-19T06:40:46.364Z,99.90
2018-05-19T06:43:14.547Z,99.90
2018-05-19T06:45:42.849Z,99.90
2018-05-19T06:48:11.803Z,99.90
2018-05-19T06:50:40.284Z,99.90
2018-05-19T06:53:10.346Z,99.90
2018-05-19T06:55:38.775Z,99.90
2018-05-19T06:58:07.092Z,99.90
2018-05-19T07:00:36.151Z,99.90
2018-05-19T07:03:04.326Z,99.90
2018-05-19T07:05:32.537Z,99.90
2018-05-19T07:08:01.035Z,99.90
2018-05-19T07:10:29.447Z,99.90
2018-05-19T07:12:57.668Z,99.90
2018-05-19T07:15:26.716Z,99.90
2018-05-19T07:17:54.950Z,99.90
2018-05-19T07:20:23.102Z,99.70
2018-05-19T07:22:52.288Z,99.90
2018-05-19T07:25:21.640Z,99.90
2018-05-19T07:27:49.763Z,99.90
2018-05-19T07:30:18.950Z,99.90
2018-05-19T07:32:47.066Z,99.90
2018-05-19T07:35:15.803Z,98.20
2018-05-19T07:37:44.186Z,97.60
2018-05-19T07:40:12.383Z,95.90
2018-05-19T07:42:41.448Z,93.40
2018-05-19T07:45:10.021Z,93.30
2018-05-19T07:47:38.366Z,94.20
2018-05-19T07:50:06.569Z,90.50
2018-05-19T07:52:35.023Z,87.50
2018-05-19T07:55:03.234Z,88.50
2018-05-19T07:57:31.463Z,85.30
2018-05-19T07:59:59.456Z,88.60
2018-05-19T08:02:27.951Z,89.70
2018-05-19T08:04:56.421Z,91.30
2018-05-19T08:07:25.728Z,84.80
2018-05-19T08:09:54.026Z,84.70
2018-05-19T08:12:22.428Z,80.50
2018-05-19T08:14:50.581Z,76.30
2018-05-19T08:17:18.830Z,75.90
2018-05-19T08:19:47.036Z,67.30
2018-05-19T08:22:16.213Z,63.10
2018-05-19T08:24:44.389Z,63.00
2018-05-19T08:27:12.864Z,63.90
2018-05-19T08:29:40.756Z,63.60
2018-05-19T08:32:11.092Z,62.90
2018-05-19T08:34:40.352Z,55.80
2018-05-19T08:37:08.718Z,55.60
2018-05-19T08:39:36.596Z,54.30
2018-05-19T08:42:04.572Z,52.90
2018-05-19T08:44:32.846Z,53.50
2018-05-19T08:47:01.321Z,51.90
2018-05-19T08:49:29.403Z,50.80
2018-05-19T08:51:57.484Z,50.40
2018-05-19T08:54:26.490Z,47.40
2018-05-19T08:56:55.454Z,45.40
2018-05-19T08:59:23.884Z,45.40
2018-05-19T09:01:52.799Z,45.30
2018-05-19T09:04:21.197Z,47.60
2018-05-19T09:06:49.491Z,47.40
2018-05-19T09:09:19.711Z,45.50
2018-05-19T09:11:48.078Z,45.50
2018-05-19T09:14:16.347Z,46.10
2018-05-19T09:16:44.744Z,43.70
2018-05-19T09:19:13.673Z,44.70
2018-05-19T09:21:41.817Z,44.60
2018-05-19T09:24:10.669Z,39.50
2018-05-19T09:26:38.872Z,39.30
2018-05-19T09:29:07.916Z,42.30
2018-05-19T09:31:36.226Z,43.00
2018-05-19T09:34:05.314Z,38.70
2018-05-19T09:36:33.287Z,38.40
2018-05-19T09:39:01.634Z,38.80
2018-05-19T09:41:29.735Z,38.70
2018-05-19T09:43:58.086Z,36.80
2018-05-19T09:46:26.167Z,34.50
2018-05-19T09:48:54.263Z,35.80
2018-05-19T09:51:22.982Z,36.20
2018-05-19T09:53:51.111Z,36.40
2018-05-19T09:56:19.655Z,34.70
2018-05-19T09:58:49.366Z,35.60
2018-05-19T10:01:18.006Z,34.60
2018-05-19T10:03:46.149Z,33.50
2018-05-19T10:06:14.646Z,34.00
2018-05-19T10:08:42.774Z,35.10
2018-05-19T10:11:10.790Z,31.60
2018-05-19T10:13:38.950Z,32.50
2018-05-19T10:16:07.302Z,33.50
2018-05-19T10:18:35.504Z,32.80
2018-05-19T10:21:06.833Z,33.60
2018-05-19T10:23:34.803Z,32.40
2018-05-19T10:26:02.681Z,34.00
2018-05-19T10:28:30.891Z,32.20
2018-05-19T10:31:00.050Z,30.00
2018-05-19T10:33:28.629Z,30.00
2018-05-19T10:35:57.331Z,30.60
2018-05-19T10:38:25.389Z,29.30
2018-05-19T10:40:53.488Z,29.30
2018-05-19T10:43:21.341Z,30.90
2018-05-19T10:45:49.298Z,30.80
2018-05-19T10:48:17.260Z,29.10
2018-05-19T10:50:45.315Z,28.50
2018-05-19T10:53:13.527Z,27.80
2018-05-19T10:55:42.510Z,28.60
2018-05-19T10:58:10.390Z,29.20
2018-05-19T11:00:38.444Z,28.80
2018-05-19T11:03:06.949Z,29.50
2018-05-19T11:05:36.128Z,29.00
2018-05-19T11:08:04.296Z,28.90
2018-05-19T11:10:32.700Z,30.70
2018-05-19T11:13:00.934Z,27.90
2018-05-19T11:15:28.838Z,27.70
2018-05-19T11:17:56.703Z,27.60
2018-05-19T11:20:25.133Z,29.60
2018-05-19T11:22:53.537Z,27.00
2018-05-19T11:25:22.009Z,27.70
2018-05-19T11:27:50.088Z,26.80
2018-05-19T11:30:18.622Z,24.40
2018-05-19T11:32:47.944Z,27.10
2018-05-19T11:35:15.963Z,27.10
2018-05-19T11:37:44.329Z,24.90
2018-05-19T11:40:12.767Z,26.60
2018-05-19T11:42:40.887Z,27.60
2018-05-19T11:45:09.887Z,28.30
2018-05-19T11:47:37.954Z,27.50
2018-05-19T11:50:05.846Z,27.50
2018-05-19T11:52:35.161Z,27.30
2018-05-19T11:55:03.416Z,27.20
2018-05-19T11:57:32.425Z,27.60
2018-05-19T12:00:00.859Z,27.50
2018-05-19T12:02:28.877Z,27.10
2018-05-19T12:04:57.195Z,26.50
2018-05-19T12:07:25.555Z,26.90
2018-05-19T12:09:53.550Z,27.10
2018-05-19T12:12:22.009Z,28.90
2018-05-19T12:14:51.038Z,28.40
2018-05-19T12:17:19.542Z,28.30
2018-05-19T12:19:48.604Z,27.10
2018-05-19T12:22:17.237Z,27.10
2018-05-19T12:24:45.522Z,28.80
2018-05-19T12:27:13.957Z,29.80
2018-05-19T12:29:42.289Z,27.50
2018-05-19T12:32:10.492Z,28.50
2018-05-19T12:34:39.681Z,27.70
2018-05-19T12:37:07.690Z,27.60
2018-05-19T12:39:37.227Z,27.30
2018-05-19T12:42:05.921Z,27.20
2018-05-19T12:44:33.821Z,26.80
2018-05-19T12:47:02.204Z,28.20
2018-05-19T12:49:30.637Z,27.50
2018-05-19T12:51:58.850Z,28.00
2018-05-19T12:54:26.819Z,28.90
2018-05-19T12:56:54.785Z,27.70
2018-05-19T12:59:22.643Z,28.50
2018-05-19T13:01:51.057Z,28.60
2018-05-19T13:04:19.909Z,28.80
2018-05-19T13:06:47.884Z,28.70
2018-05-19T13:09:16.105Z,27.80
2018-05-19T13:11:44.572Z,28.00
2018-05-19T13:14:12.860Z,28.00
2018-05-19T13:16:41.725Z,28.50
2018-05-19T13:19:10.162Z,28.50
2018-05-19T13:21:38.685Z,29.20
2018-05-19T13:24:06.572Z,29.70
2018-05-19T13:26:35.542Z,29.90
2018-05-19T13:29:03.537Z,29.90
2018-05-19T13:31:32.501Z,29.90
2018-05-19T13:34:00.991Z,29.90
2018-05-19T13:36:30.849Z,29.00
2018-05-19T13:38:59.283Z,29.00
2018-05-19T13:41:28.501Z,28.60
2018-05-19T13:43:57.357Z,29.00
2018-05-19T13:46:25.222Z,28.90
2018-05-19T13:48:53.523Z,27.90
2018-05-19T13:51:22.032Z,29.10
2018-05-19T13:53:50.706Z,29.20
2018-05-19T13:56:19.904Z,29.10
2018-05-19T13:58:48.740Z,28.20
2018-05-19T14:01:17.224Z,28.20
2018-05-19T14:03:45.746Z,29.00
2018-05-19T14:06:15.066Z,28.30
2018-05-19T14:08:43.095Z,28.30
2018-05-19T14:11:11.585Z,29.20
2018-05-19T14:13:41.555Z,29.40
2018-05-19T14:16:09.748Z,29.40
2018-05-19T14:18:37.750Z,28.50
2018-05-19T14:21:05.688Z,28.80
2018-05-19T14:23:33.977Z,29.00
2018-05-19T14:26:02.064Z,29.20
2018-05-19T14:28:30.818Z,29.80
2018-05-19T14:30:58.750Z,29.80
2018-05-19T14:33:27.237Z,31.10
2018-05-19T14:35:55.676Z,30.50
2018-05-19T14:38:24.444Z,31.10
2018-05-19T14:40:52.711Z,30.50
2018-05-19T14:43:20.878Z,31.70
2018-05-19T14:45:49.280Z,32.30
2018-05-19T14:48:17.571Z,31.30
2018-05-19T14:50:45.816Z,33.10
2018-05-19T14:53:14.252Z,30.60
2018-05-19T14:55:42.568Z,32.70
2018-05-19T14:58:11.008Z,32.70
2018-05-19T15:00:39.640Z,34.60
2018-05-19T15:03:07.883Z,32.90
2018-05-19T15:05:36.105Z,34.90
2018-05-19T15:08:05.331Z,33.80
2018-05-19T15:10:33.950Z,33.90
2018-05-19T15:13:02.475Z,33.70
2018-05-19T15:15:31.245Z,36.10
2018-05-19T15:18:00.572Z,35.40
2018-05-19T15:20:29.230Z,35.10
2018-05-19T15:22:57.184Z,35.10
2018-05-19T15:25:25.891Z,35.90
2018-05-19T15:27:54.254Z,36.70
2018-05-19T15:30:22.718Z,39.00
2018-05-19T15:32:51.142Z,38.80
2018-05-19T15:35:20.215Z,37.60
2018-05-19T15:37:48.603Z,37.60
2018-05-19T15:40:16.749Z,37.40
2018-05-19T15:42:44.838Z,39.60
2018-05-19T15:45:12.702Z,40.10
2018-05-19T15:47:40.830Z,39.60
2018-05-19T15:50:10.431Z,40.30
2018-05-19T15:52:38.615Z,40.20
2018-05-19T15:55:06.975Z,42.60
2018-05-19T15:57:36.742Z,41.90
2018-05-19T16:00:05.194Z,41.90
2018-05-19T16:02:33.716Z,42.20
2018-05-19T16:05:02.709Z,43.40
2018-05-19T16:07:30.941Z,43.30
2018-05-19T16:09:58.849Z,43.60
2018-05-19T16:12:27.471Z,43.60
2018-05-19T16:14:55.604Z,43.10
2018-05-19T16:17:24.455Z,44.00
2018-05-19T16:19:52.570Z,44.60
2018-05-19T16:22:21.213Z,45.70
2018-05-19T16:24:49.448Z,46.00
2018-05-19T16:27:19.230Z,45.70
2018-05-19T16:29:47.359Z,45.60
2018-05-19T16:32:15.690Z,45.40
2018-05-19T16:34:44.762Z,46.40
2018-05-19T16:37:13.001Z,46.40
2018-05-19T16:39:41.282Z,44.70
2018-05-19T16:42:09.695Z,45.20
2018-05-19T16:44:37.617Z,45.80
2018-05-19T16:47:05.540Z,45.20
2018-05-19T16:49:34.788Z,46.00
2018-05-19T16:52:02.908Z,45.40
2018-05-19T16:54:30.935Z,45.60
2018-05-19T16:56:59.000Z,46.20
2018-05-19T16:59:27.427Z,46.40
2018-05-19T17:01:55.766Z,47.10
2018-05-19T17:04:23.760Z,47.40
2018-05-19T17:06:52.262Z,47.10
2018-05-19T17:09:20.180Z,46.70
2018-05-19T17:11:48.450Z,47.30
2018-05-19T17:14:16.839Z,48.40
2018-05-19T17:16:45.665Z,47.90
2018-05-19T17:19:15.240Z,48.80
2018-05-19T17:21:43.565Z,47.30
2018-05-19T17:24:11.824Z,49.60
2018-05-19T17:26:39.685Z,46.90
2018-05-19T17:29:07.865Z,47.90
2018-05-19T17:31:36.036Z,48.70
2018-05-19T17:34:04.460Z,48.90
2018-05-19T17:36:32.683Z,50.90
2018-05-19T17:39:00.891Z,53.50
2018-05-19T17:41:29.848Z,51.30
2018-05-19T17:43:57.867Z,51.30
2018-05-19T17:46:26.917Z,51.10
2018-05-19T17:48:55.875Z,51.10
2018-05-19T17:51:23.916Z,51.70
2018-05-19T17:53:52.897Z,54.90
2018-05-19T17:56:21.879Z,55.60
2018-05-19T17:58:50.202Z,55.00
2018-05-19T18:01:19.522Z,58.40
2018-05-19T18:03:47.515Z,56.20
2018-05-19T18:06:15.787Z,59.80
2018-05-19T18:08:43.992Z,58.20
2018-05-19T18:11:12.661Z,58.80
2018-05-19T18:13:42.606Z,58.20
2018-05-19T18:16:11.116Z,58.10
2018-05-19T18:18:39.067Z,57.50
2018-05-19T18:21:07.485Z,59.10
2018-05-19T18:23:35.673Z,59.10
2018-05-19T18:26:03.796Z,61.40
2018-05-19T18:28:32.118Z,61.00
2018-05-19T18:31:00.239Z,62.60
2018-05-19T18:33:28.774Z,64.90
2018-05-19T18:35:57.217Z,65.70
2018-05-19T18:38:25.527Z,67.40
2018-05-19T18:40:53.972Z,69.70
2018-05-19T18:43:22.562Z,73.00
2018-05-19T18:45:50.915Z,73.80
2018-05-19T18:48:19.154Z,76.00
2018-05-19T18:50:47.580Z,79.30
2018-05-19T18:53:15.794Z,82.10
2018-05-19T18:55:43.668Z,85.20
2018-05-19T18:58:12.807Z,88.20
2018-05-19T19:00:40.931Z,89.90
2018-05-19T19:03:10.158Z,93.40
2018-05-19T19:05:39.627Z,95.10
2018-05-19T19:08:08.097Z,95.10
2018-05-19T19:10:36.658Z,96.60
2018-05-19T19:13:05.164Z,97.90
2018-05-19T19:15:33.209Z,98.90
2018-05-19T19:18:01.350Z,99.90
2018-05-19T19:20:30.458Z,99.90
2018-05-19T19:22:59.206Z,99.90
2018-05-19T19:25:28.292Z,99.90
2018-05-19T19:27:56.371Z,99.90
2018-05-19T19:30:24.851Z,99.90
2018-05-19T19:32:53.126Z,99.90
2018-05-19T19:35:21.343Z,99.90
2018-05-19T19:37:49.986Z,99.90
2018-05-19T19:40:18.453Z,99.90
2018-05-19T19:42:47.610Z,99.90
2018-05-19T19:45:15.724Z,99.90
2018-05-19T19:47:44.174Z,99.90
2018-05-19T19:50:12.066Z,99.90
2018-05-19T19:52:40.610Z,99.90
2018-05-19T19:55:09.235Z,99.90
2018-05-19T19:57:37.422Z,99.90
2018-05-19T20:00:05.470Z,99.90
2018-05-19T20:02:34.106Z,99.90
2018-05-19T20:05:02.561Z,99.90
2018-05-19T20:07:30.873Z,99.90
2018-05-19T20:09:59.138Z,99.90
2018-05-19T20:12:28.139Z,99.90
2018-05-19T20:14:56.253Z,99.90
2018-05-19T20:17:24.338Z,99.90
2018-05-19T20:19:52.450Z,99.90
2018-05-19T20:22:20.685Z,99.90
2018-05-19T20:24:48.766Z,99.90
2018-05-19T20:27:17.192Z,99.90
2018-05-19T20:29:45.397Z,99.90
2018-05-19T20:32:13.784Z,99.90
2018-05-19T20:34:41.961Z,99.90
2018-05-19T20:37:10.024Z,99.90
2018-05-19T20:39:38.988Z,99.90
2018-05-19T20:42:07.194Z,99.90
2018-05-19T20:44:35.395Z,99.90
2018-05-19T20:47:04.768Z,99.90
2018-05-19T20:49:33.670Z,99.90
2018-05-19T20:52:01.920Z,99.90
2018-05-19T20:54:30.719Z,99.90
2018-05-19T20:56:59.199Z,99.90
2018-05-19T20:59:27.371Z,99.90
2018-05-19T21:01:56.268Z,99.90
2018-05-19T21:04:24.379Z,99.90
2018-05-19T21:06:52.719Z,99.90
2018-05-19T21:09:21.312Z,99.90
2018-05-19T21:11:49.263Z,99.90
2018-05-19T21:14:17.578Z,99.90
2018-05-19T21:16:46.838Z,99.90
2018-05-19T21:19:15.380Z,99.90
2018-05-19T21:21:43.756Z,99.90
2018-05-19T21:24:11.984Z,99.90
2018-05-19T21:26:41.578Z,99.90
2018-05-19T21:29:09.693Z,99.90
2018-05-19T21:31:38.331Z,99.90
2018-05-19T21:34:06.355Z,99.90
2018-05-19T21:36:34.794Z,99.90
2018-05-19T21:39:03.388Z,99.90
2018-05-19T21:41:31.542Z,99.90
2018-05-19T21:44:00.436Z,99.90
2018-05-19T21:46:28.212Z,99.90
2018-05-19T21:48:56.264Z,99.90
2018-05-19T21:51:24.333Z,99.90
2018-05-19T21:53:52.911Z,99.90
2018-05-19T21:56:21.252Z,99.90
2018-05-19T21:58:49.675Z,99.90
2018-05-19T22:01:18.066Z,99.90
2018-05-19T22:03:47.096Z,99.90
2018-05-19T22:06:15.415Z,99.90
2018-05-19T22:08:44.980Z,99.90
2018-05-19T22:11:13.320Z,99.90
2018-05-19T22:13:41.268Z,99.90
2018-05-19T22:16:09.565Z,99.90
2018-05-19T22:18:37.441Z,99.90
2018-05-19T22:21:06.300Z,99.90
2018-05-19T22:23:34.713Z,99.90
2018-05-19T22:26:04.115Z,99.90
2018-05-19T22:28:33.108Z,99.90
2018-05-19T22:31:01.969Z,99.90
2018-05-19T22:33:30.447Z,99.90
2018-05-19T22:35:58.316Z,99.90
2018-05-19T22:38:26.575Z,99.90
2018-05-19T22:40:54.971Z,99.90
2018-05-19T22:43:23.144Z,99.90
2018-05-19T22:45:51.304Z,99.90
2018-05-19T22:48:19.386Z,99.90
2018-05-19T22:50:47.654Z,99.90
2018-05-19T22:53:15.829Z,99.90
2018-05-19T22:55:43.908Z,99.90
2018-05-19T22:58:12.394Z,99.90
2018-05-19T23:00:40.742Z,99.90
2018-05-19T23:03:08.720Z,99.90
2018-05-19T23:05:36.708Z,99.90
2018-05-19T23:08:04.875Z,99.90
2018-05-19T23:10:33.160Z,99.90
2018-05-19T23:13:01.405Z,99.90
2018-05-19T23:15:29.617Z,99.90
2018-05-19T23:17:57.883Z,99.90
2018-05-19T23:20:26.050Z,99.90
2018-05-19T23:22:53.893Z,99.90
2018-05-19T23:25:21.683Z,99.90
2018-05-19T23:27:49.904Z,99.90
2018-05-19T23:30:18.329Z,99.90
2018-05-19T23:32:46.515Z,99.90
2018-05-19T23:35:14.364Z,99.90
2018-05-19T23:37:42.649Z,99.90
2018-05-19T23:40:11.064Z,99.90
2018-05-19T23:42:39.745Z,99.90
2018-05-19T23:45:08.705Z,99.90
2018-05-19T23:47:36.983Z,99.90
2018-05-19T23:50:04.952Z,99.90
2018-05-19T23:52:33.426Z,99.90
2018-05-19T23:55:01.693Z,99.90
2018-05-19T23:57:29.980Z,99.90
2018-05-19T23:59:58.484Z,99.90
